NCAR-RAP Real-Time Weather Data

Output produced by METARs form (24 April 2018  22:57 UTC)
found at http://weather.rap.ucar.edu/surface/
 
RJEC 242200Z 31002KT 9999 FEW005 BKN150 04/03 Q1013
RJEC 242140Z VRB02KT 9999 FEW005 BKN150 04/02 Q1013 RMK 1ST005 7AC150 A2992
RJEC 241100Z 17012KT 9999 FEW025 BKN/// 08/03 Q1015
RJEC 241000Z 18008KT 9999 FEW030 SCT100 BKN/// 09/03 Q1014
RJEC 240900Z 18009KT 9999 FEW050 BKN/// 11/03 Q1014
RJEC 240800Z 19007KT 160V220 9999 FEW050 BKN/// 13/03 Q1014
RJEC 240700Z 17007KT 150V210 9999 FEW050 BKN/// 14/02 Q1014
RJEC 240600Z 17011KT 9999 FEW050 BKN/// 15/02 Q1014
RJEC 240500Z 16011G22KT 120V230 9999 FEW040 SCT050 BKN/// 15/02 Q1015
RJEC 240400Z 18008KT 120V230 9999 FEW040 BKN/// 15/03 Q1016
RJEC 240300Z 21005KT 160V260 9999 FEW040 SCT050 BKN/// 14/00 Q1017
RJEC 240200Z 19003KT 130V270 9999 FEW040 SCT050 BKN/// 12/00 Q1018
RJEC 240100Z 17003KT 070V250 9999 FEW050 BKN/// 11/00 Q1019
RJEC 240000Z 18005KT 140V230 9999 FEW050 BKN/// 09/01 Q1020
RJEC 232300Z 18007KT 150V210 9999 FEW050 BKN/// 08/01 Q1020
RJEC 232200Z VRB01KT 9999 FEW005 BKN/// 04/01 Q1021
RJEC 232140Z VRB01KT 9999 FEW005 BKN/// 03/M00 Q1021 RMK 1ST005 A3016
RJEC 231100Z VRB01KT CAVOK 08/M05 Q1023
RJEC 231000Z 02003KT 360V060 CAVOK 09/M04 Q1023
RJEC 230900Z 35007KT CAVOK 11/M04 Q1022
RJEC 230800Z 33007KT CAVOK 12/M04 Q1022
RJEC 230700Z 32009KT CAVOK 13/M07 Q1022
RJEC 230600Z 33009KT 9999 FEW050 SCT/// 13/M04 Q1023
RJEC 230500Z 01006KT 330V100 9999 FEW040 14/M03 Q1023
RJEC 230400Z 34011KT 320V040 9999 FEW035 13/M04 Q1024
RJEC 230300Z 36007KT 320V050 9999 FEW030 13/00 Q1024
RJEC 230200Z 03007KT 360V070 9999 FEW025 12/M01 Q1025
RJEC 230100Z VRB03KT 9999 FEW020 11/02 Q1025
RJEC 230000Z VRB02KT 9999 FEW020 09/01 Q1026
RJEC 222300Z 18004KT 120V230 9999 FEW015 07/02 Q1026
RJEC 222200Z 17006KT 9999 FEW010 05/02 Q1026
RJEC 222140Z 18007KT 9999 FEW010 04/01 Q1026 RMK 1ST010 A3030
RJEC 221100Z 33005KT 9999 FEW050 SCT/// 06/M01 Q1022